Wachtebeke, Belgium
Current Conditions -  °F | °C
As of 8:25 AM on Wednesday 22 Oct 2014 (Local Time) from EHFS Reporting Station
Scattered Clouds Scattered Clouds  
Wind Chill: 52°   Ceiling: Unl
Heat Index: 52°   Visibility: 6mi
Dew Point: 41°   Wind: 24mph
Humidity: 67%   Direction: 300°WNW
Pressure: 30.06"   Gusts: 39mph
Location:  51.17°N, 3.87°E
Report Text: EHFS 220625Z AUTO 30021G34KT 270V340 9999 FEW026/// SCT030///11/05 Q1018
Loading
Personal Weather Stations






























Interactive Weather Map
Tropical Storm Tracking
New forecast layout! Learn more

10-Day Weather Forecast

Advertisements
Track Severe Weather on mobile